Huvudsida
METAR-TAF:

METAR-TAF

Flygplatser :

Julöns flygplats

Julön, Australien

latitud: 10-26S, longitud: 105-41E, höjd: 279 m

Aktuellt väderrapport

Denna rapport gjordes för 47 minuter sedan, klockan 20:00 UTC
Vind 5 kt från sydväst
Temperatur 25°C
Fuktighet 94%
Tryck 1012 hPa
Sikt 10 km eller mer

METAR: YPXM 222000Z AUTO 23005KT 9999 // NCD 25/24 Q1012 RF00.0////./

Tid: 03:47 (20:47 UTC)

Väderprognos

Denna rapport gjordes för 4 timmar och 6 minuter sedan, klockan 16:41 UTC
Prognos gäller från 22 kl. 18 UTC till 23 kl. 18 UTC
Vind 7 kt från syd/sydväst
Sikt 10 km eller mer
Spridda moln på en höjd av 2000 ft
Från 23 kl. 0000 UTC
Vind 8 kt från syd/sydväst
Sikt 10 km eller mer
Spridda moln på en höjd av 1200 ft
Temporärt
från 22 kl. 22 UTC till 23 kl. 12 UTC
Sikt 10 km eller mer
Brutna moln på en höjd av 1200 ft

TAF: YPXM 221641Z 2218/2318 21007KT 9999 SCT020 FM230000 21008KT 9999 SCT012 TEMPO 2222/2312 9999 BKN012

Aktuella väderrapporter och prognoser från 4000 flygplatser (METAR- och TAF-rapporter).

De tillgängliga stationerna syns som gula och röda prickar på kartan.

För musen över prickarna för att se namnen på stationerna.

Klicka sedan för att få väderrapporter och prognoser.

För att ändra kartan: Klicka på de gröna knapparna med ett svart kors på för att zooma in; den gröna knappen med ett streck på för att zooma ut; eller på de gröna pilarna för angränsande kartor.


METAR-TAF: